Karla A — TCCR8 — position and weather

sailwx.info

Track history (hours):
 
Tides and Currents Weather Stations Pressure Air Temp Water Temp Dewpoint Dewpoint Depression Visibility Wind Speed Wind Dir Waves Ship Positions

Karla A

Last reported at 2016-Dec-03 13:27 UTC. Time now 2016-Dec-03 13:47 UTC.
Position N 45°34' E 013°41'.

Length 155 m; draft 6.7 m.

Type: Ship (hazmat cat A). MMSI: 271000744.

Date/timePositionNaut miles runAvg speedWind from/ knotsBaromVisibWave heightAir tempDewpointWater temp
2016-Dec-03 13:27N 45°34' E 013°41'0 0.0
2016-Dec-03 12:32N 45°34' E 013°41'0 0.0
2016-Dec-03 11:32N 45°34' E 013°41'0 0.0
2016-Dec-03 10:19N 45°34' E 013°41'0 0.0
2016-Dec-03 09:31N 45°34' E 013°41'0 0.0
2016-Dec-03 08:31N 45°34' E 013°41'7 7.5
2016-Dec-03 07:33N 45°34' E 013°31'1413.7
2016-Dec-03 06:33N 45°27' E 013°15'1313.0
2016-Dec-03 05:33N 45°14' E 013°14'1413.9
2016-Dec-03 04:33N 45°00' E 013°19'1414.0
2016-Dec-03 03:34N 44°49' E 013°30'1413.9
2016-Dec-03 02:33N 44°37' E 013°40'1413.9
2016-Dec-03 01:33N 44°25' E 013°51'1414.1
2016-Dec-03 00:33N 44°13' E 014°02'471 9.8
2016-Dec-01 00:33N 36°24' E 014°44'1414.1
2016-Nov-30 23:33N 36°26' E 014°27'1414.5
2016-Nov-30 22:33N 36°32' E 014°10'1414.6
2016-Nov-30 21:34N 36°38' E 013°54'1414.4
2016-Nov-30 20:33N 36°44' E 013°37'  
Track history (hours):
 
Tides and Currents Weather Stations Pressure Air Temp Water Temp Dewpoint Dewpoint Depression Visibility Wind Speed Wind Dir Waves Ship Positions

Karla A

Last reported at 2016-Dec-03 13:27 UTC. Time now 2016-Dec-03 13:47 UTC.
Position N 45°34' E 013°41'.

Length 155 m; draft 6.7 m.

Type: Ship (hazmat cat A). MMSI: 271000744.

Date/timePositionNaut miles runAvg speedWind from/ knotsBaromVisibWave heightAir tempDewpointWater temp
2016-Dec-03 13:27N 45°34' E 013°41'0 0.0
2016-Dec-03 12:32N 45°34' E 013°41'0 0.0
2016-Dec-03 11:32N 45°34' E 013°41'0 0.0
2016-Dec-03 10:19N 45°34' E 013°41'0 0.0
2016-Dec-03 09:31N 45°34' E 013°41'0 0.0
2016-Dec-03 08:31N 45°34' E 013°41'7 7.5
2016-Dec-03 07:33N 45°34' E 013°31'1413.7
2016-Dec-03 06:33N 45°27' E 013°15'1313.0
2016-Dec-03 05:33N 45°14' E 013°14'1413.9
2016-Dec-03 04:33N 45°00' E 013°19'1414.0
2016-Dec-03 03:34N 44°49' E 013°30'1413.9
2016-Dec-03 02:33N 44°37' E 013°40'1413.9
2016-Dec-03 01:33N 44°25' E 013°51'1414.1
2016-Dec-03 00:33N 44°13' E 014°02'471 9.8
2016-Dec-01 00:33N 36°24' E 014°44'1414.1
2016-Nov-30 23:33N 36°26' E 014°27'1414.5
2016-Nov-30 22:33N 36°32' E 014°10'1414.6
2016-Nov-30 21:34N 36°38' E 013°54'1414.4
2016-Nov-30 20:33N 36°44' E 013°37'  

Dump ship's entire track history